Potter, Nebraska
Current Conditions -  °F | °C
As of 12:15 AM on Monday 22 Dec 2014 (Local Time) from KIBM Reporting Station
Clear Clear  
Wind Chill: -6°   Ceiling: Unl
Heat Index:   Visibility: 10mi
Dew Point: -2°   Wind: 12mph
Humidity: 92%   Direction: 300°WNW
Pressure: 29.61"   Gusts: NA
Location:  41.22°N, 103.32°W
Report Text: KIBM 220715Z AUTO 30010KT 10SM CLR 00/M02 A2961 RMK AO2 T10051016
Loading
Personal Weather Stations






























Interactive Weather Map New forecast layout! Learn more

10-Day Weather Forecast

Advertisements
Track Severe Weather on mobile